Latest Weather Observations for Kyabram

IDV60801

Issued at 5:32 pm EST Saturday 27 May 2017 (issued every 30 minutes, with the page automatically refreshed every 10 minutes)

About weather observations | Map of weather stations | Latest weather observations for VIC | Other Formats
Station Details ID: 080091 Name: KYABRAM Lat: -36.34 Lon: 145.06 Height: 105.0 m
Data from the previous 72 hours. | See also: Recent months at Kyabram
Date/Time
EST
Temp
°C
App
Temp
°C
Dew
Point
°C
Rel
Hum
%
Delta-T
°C
Wind Press
QNH
hPa
Press
MSL
hPa
Rain since
9am
mm
Dir  Spd
km/h
Gust
km/h
Spd
kts
Gust
kts
27/05:30pm 14.6 12.9 9.8 73 2.5 NNE 9 13 5 7 - - 0.0
27/05:00pm 15.3 13.2 9.7 69 2.9 N 11 17 6 9 - - 0.0
27/04:30pm 16.0 13.5 9.7 66 3.3 N 13 20 7 11 - - 0.0
27/04:00pm 17.2 14.0 9.9 62 3.9 N 17 24 9 13 - - 0.0
27/03:30pm 17.2 13.9 9.6 61 4.0 N 17 24 9 13 - - 0.0
27/03:00pm 17.4 13.9 10.3 63 3.8 N 19 26 10 14 - - 0.0
27/02:30pm 17.5 14.3 10.1 62 3.9 N 17 26 9 14 - - 0.0
27/02:00pm 17.1 14.4 10.2 64 3.7 N 15 28 8 15 - - 0.0
27/01:30pm 16.9 14.2 10.5 66 3.4 N 15 22 8 12 - - 0.0
27/01:00pm 17.4 15.0 11.4 68 3.3 N 15 22 8 12 - - 0.0
27/12:30pm 17.6 15.5 12.3 71 2.9 NNE 15 22 8 12 - - 0.0
27/12:00pm 16.2 13.7 11.2 72 2.7 N 15 22 8 12 - - 0.0
27/11:30am 15.9 13.9 11.5 75 2.4 NNE 13 20 7 11 - - 0.0
27/11:00am 15.4 13.6 12.2 81 1.8 N 13 20 7 11 - - 0.0
27/10:30am 14.3 11.9 11.5 83 1.5 NNE 15 22 8 12 - - 0.0
27/10:00am 13.0 11.9 12.1 94 0.5 NNE 9 13 5 7 - - 0.0
27/09:30am 11.3 9.0 10.5 95 0.4 NNE 13 19 7 10 - - 0.0
27/09:00am 10.8 9.3 10.6 99 0.1 NNE 9 17 5 9 - - 0.0
27/08:30am 9.6 9.5 9.5 99 0.0 CALM 0 0 0 0 - - 0.0
27/08:00am 9.0 8.8 8.9 99 0.0 CALM 0 0 0 0 - - 0.0
27/07:30am 7.9 7.4 7.8 99 0.0 CALM 0 0 0 0 - - 0.0
27/07:00am 8.0 7.5 7.9 99 0.0 CALM 0 0 0 0 - - 0.0
27/06:30am 8.6 8.3 8.5 99 0.0 CALM 0 0 0 0 - - 0.0
27/06:00am 8.7 7.1 8.6 99 0.0 NNE 7 13 4 7 - - 0.0
27/05:30am 8.8 6.8 8.7 99 0.0 NNE 9 11 5 6 - - 0.0
27/05:00am 9.0 7.4 8.9 99 0.0 NNE 7 11 4 6 - - 0.0
27/04:30am 9.4 7.9 9.3 99 0.0 NNE 7 11 4 6 - - 0.0
27/04:00am 9.0 8.8 8.9 99 0.0 CALM 0 0 0 0 - - 0.0
27/03:30am 9.7 9.6 9.6 99 0.1 CALM 0 0 0 0 - - 0.0
27/03:00am 10.6 10.8 10.4 99 0.1 CALM 0 0 0 0 - - 0.0
27/02:30am 11.1 10.3 10.9 99 0.1 NNE 6 9 3 5 - - 0.0
27/02:00am 11.2 10.4 11.0 99 0.1 NNE 6 11 3 6 - - 0.0
27/01:30am 11.1 10.1 10.9 99 0.1 NNE 7 9 4 5 - - 0.0
27/01:00am 11.1 10.3 10.9 99 0.1 NNE 6 9 3 5 - - 0.0
27/12:30am 11.1 10.3 10.9 99 0.1 NNE 6 9 3 5 - - 0.0
27/12:00am 10.9 9.8 10.7 99 0.1 NE 7 11 4 6 - - 0.0
 
Date/Time
EST
Temp
°C
App
Temp
°C
Dew
Point
°C
Rel
Hum
%
Delta-T
°C
Wind Press
QNH
hPa
Press
MSL
hPa
Rain since
9am
mm
Dir  Spd
km/h
Gust
km/h
Spd
kts
Gust
kts
26/11:30pm 11.6 12.0 11.4 99 0.1 CALM 0 0 0 0 - - 0.0
26/11:00pm 11.2 11.5 11.0 99 0.1 CALM 0 0 0 0 - - 0.0
26/10:30pm 10.8 11.0 10.6 99 0.1 CALM 0 0 0 0 - - 0.0
26/10:00pm 10.9 11.1 10.7 99 0.1 CALM 0 0 0 0 - - 0.0
26/09:30pm 11.0 11.3 10.8 99 0.1 CALM 0 0 0 0 - - 0.0
26/09:00pm 11.3 11.7 11.1 99 0.1 CALM 0 0 0 0 - - 0.0
26/08:30pm 11.0 11.3 10.8 99 0.1 CALM 0 0 0 0 - - 0.0
26/08:00pm 11.1 11.4 10.9 99 0.1 CALM 0 0 0 0 - - 0.0
26/07:30pm 10.8 11.0 10.6 99 0.1 CALM 0 0 0 0 - - 0.0
26/07:00pm 11.1 11.4 10.9 99 0.1 CALM 0 0 0 0 - - 0.0
26/06:30pm 11.8 12.3 11.5 98 0.2 CALM 0 0 0 0 - - 0.0
26/06:00pm 12.5 12.9 11.2 92 0.7 CALM 0 0 0 0 - - 0.0
26/05:30pm 13.7 14.2 11.6 87 1.1 CALM 0 0 0 0 - - 0.0
26/05:00pm 15.5 16.1 11.9 79 2.0 CALM 0 0 0 0 - - 0.0
26/04:30pm 16.9 17.5 11.8 72 2.8 CALM 0 0 0 0 - - 0.0
26/04:00pm 16.8 17.5 12.3 75 2.5 CALM 0 0 0 0 - - 0.0
26/03:30pm 16.5 17.2 12.3 76 2.3 CALM 0 0 0 0 - - 0.0
26/03:00pm 16.6 17.4 12.6 77 2.2 CALM 0 0 0 0 - - 0.0
26/02:30pm 16.7 16.6 12.0 74 2.6 SW 4 9 2 5 - - 0.0
26/02:00pm 16.8 16.3 11.9 73 2.7 WNW 6 13 3 7 - - 0.0
26/01:30pm 17.1 17.2 12.8 76 2.4 WNW 4 11 2 6 - - 0.0
26/01:00pm 16.4 17.0 12.0 75 2.4 CALM 0 4 0 2 - - 0.0
26/12:30pm 17.3 18.1 12.6 74 2.6 CALM 0 0 0 0 - - 0.0
26/12:00pm 16.1 16.6 11.5 74 2.5 CALM 0 2 0 1 - - 0.0
26/11:30am 15.6 15.7 11.6 77 2.2 N 2 7 1 4 - - 0.0
26/11:00am 15.3 15.9 11.9 80 1.9 CALM 0 0 0 0 - - 0.0
26/10:30am 14.3 14.6 10.9 80 1.8 CALM 0 0 0 0 - - 0.0
26/10:00am 13.5 13.7 10.7 83 1.5 CALM 0 0 0 0 - - 0.0
26/09:30am 12.7 12.9 10.6 87 1.1 CALM 0 0 0 0 - - 0.0
26/09:00am 11.2 11.5 11.0 99 0.1 CALM 0 0 0 0 - - 0.0
26/08:30am 10.0 10.0 9.9 99 0.1 CALM 0 0 0 0 - - 0.0
26/08:00am 7.8 7.3 7.7 99 0.0 CALM 0 0 0 0 - - 0.0
26/07:30am 7.6 7.0 7.5 99 0.0 CALM 0 0 0 0 - - 0.0
26/07:00am 7.9 7.4 7.8 99 0.0 CALM 0 0 0 0 - - 0.0
26/06:30am 7.9 7.4 7.8 99 0.0 CALM 0 0 0 0 - - 0.0
26/06:00am 7.8 7.3 7.7 99 0.0 CALM 0 0 0 0 - - 0.0
26/05:30am 8.6 8.3 8.5 99 0.0 CALM 0 0 0 0 - - 0.0
26/05:00am 8.5 8.1 8.4 99 0.0 CALM 0 0 0 0 - - 0.0
26/04:30am 9.0 8.7 8.7 98 0.1 CALM 0 0 0 0 - - 0.0
26/04:00am 9.6 9.4 9.1 97 0.2 CALM 0 0 0 0 - - 0.0
26/03:30am 10.3 10.2 9.5 95 0.4 CALM 0 0 0 0 - - 0.0
26/03:00am 10.5 10.4 9.6 94 0.5 CALM 0 0 0 0 - - 0.0
26/02:30am 11.7 12.0 10.8 94 0.5 CALM 0 0 0 0 - - 0.0
26/02:00am 11.8 12.0 10.7 93 0.6 CALM 0 0 0 0 - - 0.0
26/01:30am 11.8 12.0 10.5 92 0.7 CALM 0 0 0 0 - - 0.0
26/01:00am 12.2 11.7 10.8 91 0.7 NW 4 9 2 5 - - 0.0
26/12:30am 11.9 10.5 10.8 93 0.6 NNW 9 11 5 6 - - 0.0
26/12:00am 11.9 10.1 10.8 93 0.6 N 11 15 6 8 - - 0.0
 
Date/Time
EST
Temp
°C
App
Temp
°C
Dew
Point
°C
Rel
Hum
%
Delta-T
°C
Wind Press
QNH
hPa
Press
MSL
hPa
Rain since
9am
mm
Dir  Spd
km/h
Gust
km/h
Spd
kts
Gust
kts
25/11:30pm 12.0 10.7 11.1 94 0.5 N 9 13 5 7 - - 0.0
25/11:00pm 11.9 10.4 10.6 92 0.7 N 9 11 5 6 - - 0.0
25/10:30pm 12.0 10.9 10.6 91 0.7 N 7 9 4 5 - - 0.0
25/10:00pm 12.2 10.7 10.6 90 0.8 N 9 11 5 6 - - 0.0
25/09:30pm 12.3 10.8 10.7 90 0.8 NNE 9 13 5 7 - - 0.0
25/09:00pm 12.4 11.0 11.0 91 0.7 NNE 9 13 5 7 - - 0.0
25/08:30pm 12.2 11.1 10.8 91 0.7 NNE 7 9 4 5 - - 0.0
25/08:00pm 12.5 11.0 10.7 89 0.9 NNE 9 13 5 7 - - 0.0
25/07:30pm 12.9 11.5 10.8 87 1.1 NNE 9 13 5 7 - - 0.0
25/07:00pm 12.9 13.2 10.8 87 1.1 CALM 0 0 0 0 - - 0.0
25/06:30pm 13.1 13.3 10.6 85 1.3 CALM 0 0 0 0 - - 0.0
25/06:00pm 13.4 13.5 10.2 81 1.7 CALM 0 0 0 0 - - 0.0
25/05:30pm 13.9 12.4 10.5 80 1.8 N 9 11 5 6 - - 0.0
25/05:00pm 14.2 13.0 10.4 78 2.0 NNW 7 9 4 5 - - 0.0
25/04:30pm 14.6 12.7 10.4 76 2.2 NNW 11 15 6 8 - - 0.0
25/04:00pm 14.9 13.4 10.7 76 2.2 NNW 9 13 5 7 - - 0.0
25/03:30pm 15.2 14.0 10.2 72 2.6 NW 7 11 4 6 - - 0.0
25/03:00pm 15.4 14.8 10.4 72 2.6 NW 4 13 2 7 - - 0.0
25/02:30pm 14.6 14.8 10.6 77 2.1 CALM 0 0 0 0 - - 0.0
25/02:00pm 14.6 13.1 10.6 77 2.1 NNW 9 17 5 9 - - 0.0
25/01:30pm 14.4 13.0 11.0 80 1.8 N 9 15 5 8 - - 0.0
25/01:00pm 13.8 12.6 11.7 87 1.1 N 9 13 5 7 - - 0.0
25/12:30pm 13.1 11.9 11.7 91 0.7 NNE 9 15 5 8 - - 0.0
25/12:00pm 12.6 11.7 11.3 92 0.7 NNE 7 11 4 6 - - 0.0
25/11:30am 12.2 11.4 11.6 96 0.3 NNE 7 11 4 6 - - 0.0
25/11:00am 11.8 11.9 11.6 99 0.1 NNE 2 7 1 4 - - 0.0
25/10:30am 11.0 11.3 10.8 99 0.1 CALM 0 0 0 0 - - 0.0
25/10:00am 10.1 10.2 10.0 99 0.1 CALM 0 0 0 0 - - 0.0
25/09:30am 9.6 9.5 9.5 99 0.0 CALM 0 0 0 0 - - 0.0
25/09:00am 8.9 8.6 8.8 99 0.0 CALM 0 0 0 0 - - 0.0
25/08:30am 8.2 7.8 8.1 99 0.0 CALM 0 0 0 0 - - 0.0
25/08:00am 7.5 6.9 7.4 99 0.0 CALM 0 0 0 0 - - 0.0
25/07:30am 6.0 5.1 5.9 99 0.0 CALM 0 0 0 0 - - 0.0
25/07:00am 5.2 4.1 5.1 99 0.0 CALM 0 0 0 0 - - 0.0
25/06:30am 4.6 3.4 4.5 99 0.0 CALM 0 0 0 0 - - 0.0
25/06:00am 5.7 4.7 5.6 99 0.0 CALM 0 0 0 0 - - 0.0
25/05:30am 6.2 5.3 6.1 99 0.0 CALM 0 0 0 0 - - 0.0
25/05:00am 6.4 5.6 6.3 99 0.0 CALM 0 0 0 0 - - 0.0
25/04:30am 6.6 5.8 6.5 99 0.0 CALM 0 0 0 0 - - 0.0
25/04:00am 7.0 6.3 6.9 99 0.0 CALM 0 0 0 0 - - 0.0
25/03:30am 7.0 6.3 6.9 99 0.0 CALM 0 0 0 0 - - 0.0
25/03:00am 6.9 6.2 6.8 99 0.0 CALM 0 0 0 0 - - 0.0
25/02:30am 7.0 6.3 6.9 99 0.0 CALM 0 0 0 0 - - 0.0
25/02:00am 6.9 6.1 6.6 98 0.1 CALM 0 0 0 0 - - 0.0
25/01:30am 7.7 7.1 7.4 98 0.1 CALM 0 0 0 0 - - 0.0
25/01:00am 7.7 7.1 7.4 98 0.1 CALM 0 0 0 0 - - 0.0
25/12:30am 7.8 7.2 7.5 98 0.1 CALM 0 0 0 0 - - 0.0
25/12:00am 7.8 7.2 7.2 96 0.3 CALM 0 0 0 0 - - 0.0
 
Date/Time
EST
Temp
°C
App
Temp
°C
Dew
Point
°C
Rel
Hum
%
Delta-T
°C
Wind Press
QNH
hPa
Press
MSL
hPa
Rain since
9am
mm
Dir  Spd
km/h
Gust
km/h
Spd
kts
Gust
kts
24/11:30pm 8.0 7.3 6.9 93 0.5 CALM 0 0 0 0 - - 0.0
24/11:00pm 9.0 8.5 7.9 93 0.5 CALM 0 0 0 0 - - 0.0
24/10:30pm 9.3 8.9 8.2 93 0.5 CALM 0 0 0 0 - - 0.0
24/10:00pm 9.6 9.3 8.8 95 0.4 CALM 0 0 0 0 - - 0.0
24/09:30pm 9.3 9.1 9.2 99 0.0 CALM 0 7 0 4 - - 0.0
24/09:00pm 8.5 8.1 8.2 98 0.1 CALM 0 0 0 0 - - 0.0
24/08:30pm 8.4 7.9 8.0 97 0.2 CALM 0 0 0 0 - - 0.0
24/08:00pm 8.7 8.1 7.6 93 0.5 CALM 0 0 0 0 - - 0.0
24/07:30pm 9.7 9.3 8.3 91 0.7 CALM 0 0 0 0 - - 0.0
24/07:00pm 10.1 9.7 8.2 88 0.9 CALM 0 0 0 0 - - 0.0
24/06:30pm 10.9 10.6 8.7 86 1.1 CALM 0 0 0 0 - - 0.0
24/06:00pm 11.7 11.2 8.0 78 1.8 CALM 0 0 0 0 - - 0.0

Other Formats:

Comma delimited format used in spreadsheet applications
http://www.bom.gov.au/fwo/IDV60801/IDV60801.95833.axf

JavaScript Object Notation format (JSON) in row-major order
http://www.bom.gov.au/fwo/IDV60801/IDV60801.95833.json